Terminal Aerodrome Forecast
Issued by NWS Rapid City, SD

Home | Current Version | Previous Version | Graphics & Text | Print | Product List | Glossary On
Versions: 1 2 3 4 5 6 7 8 9 10 11 12 13 14 15 16 17 18
742
FTUS43 KUNR 271403 AAA
TAFRAP
TAF AMD
KRAP 271403Z 2714/2812 VRB05KT P6SM BKN150
     FM271600 07006KT P6SM SCT010
     FM280000 07009KT P6SM OVC015
     FM280600 04007KT 4SM -RA OVC015=

USA.gov is the U.S. government's official web portal to all federal, state and local government web resources and services.